createdAt,value
2019-01-23T00:01:23.758Z,99977.13
2019-01-23T00:03:57.210Z,99982.26
2019-01-23T00:06:28.909Z,100002.25
2019-01-23T00:09:02.726Z,100004.95
2019-01-23T00:11:33.527Z,99998.20
2019-01-23T00:14:03.867Z,100017.34
2019-01-23T00:16:33.798Z,100031.92
2019-01-23T00:19:03.205Z,100014.89
2019-01-23T00:21:39.043Z,100020.55
2019-01-23T00:24:10.194Z,100012.72
2019-01-23T00:26:45.848Z,100015.94
2019-01-23T00:29:21.241Z,100021.89
2019-01-23T00:31:50.789Z,100016.77
2019-01-23T00:34:22.855Z,100019.46
2019-01-23T00:36:54.513Z,100017.06
2019-01-23T00:39:25.398Z,100015.70
2019-01-23T00:41:56.164Z,100020.58
2019-01-23T00:44:26.702Z,100017.34
2019-01-23T00:47:01.504Z,100023.03
2019-01-23T00:49:33.568Z,100027.32
2019-01-23T00:52:07.822Z,100035.44
2019-01-23T00:54:41.037Z,100030.87
2019-01-23T00:57:12.906Z,100031.45
2019-01-23T00:59:42.237Z,100021.51
2019-01-23T01:02:12.073Z,100019.10
2019-01-23T01:04:41.683Z,100022.88
2019-01-23T01:07:11.566Z,100020.48
2019-01-23T01:09:40.893Z,100006.20
2019-01-23T01:12:10.026Z,99997.86
2019-01-23T01:14:39.568Z,99993.55
2019-01-23T01:17:08.711Z,100008.12
2019-01-23T01:19:40.956Z,100018.91
2019-01-23T01:22:11.324Z,100019.47
2019-01-23T01:24:43.247Z,100008.67
2019-01-23T01:27:14.736Z,100002.22
2019-01-23T01:29:45.558Z,99992.48
2019-01-23T01:32:15.872Z,99998.41
2019-01-23T01:34:45.727Z,100000.30
2019-01-23T01:37:15.666Z,100002.14
2019-01-23T01:39:46.954Z,100007.55
2019-01-23T01:42:17.213Z,100013.47
2019-01-23T01:44:52.536Z,100022.09
2019-01-23T01:47:22.200Z,100019.95
2019-01-23T01:49:52.593Z,100035.88
2019-01-23T01:52:24.605Z,100031.27
2019-01-23T01:54:59.442Z,100034.27
2019-01-23T01:57:30.354Z,100059.62
2019-01-23T02:00:06.929Z,100077.98
2019-01-23T02:02:38.480Z,100083.39
2019-01-23T02:05:11.306Z,100078.78
2019-01-23T02:07:43.500Z,100076.88
2019-01-23T02:10:18.871Z,100069.31
2019-01-23T02:12:49.734Z,100062.56
2019-01-23T02:15:22.605Z,100049.89
2019-01-23T02:17:51.822Z,100043.97
2019-01-23T02:20:25.072Z,100038.02
2019-01-23T02:22:55.541Z,100052.86
2019-01-23T02:25:25.261Z,100051.22
2019-01-23T02:27:58.092Z,100047.96
2019-01-23T02:30:27.873Z,100054.94
2019-01-23T02:32:58.601Z,100044.67
2019-01-23T02:35:28.751Z,100027.93
2019-01-23T02:37:58.050Z,100026.03
2019-01-23T02:40:28.394Z,100043.00
2019-01-23T02:42:57.925Z,100047.55
2019-01-23T02:45:31.642Z,100046.70
2019-01-23T02:48:06.157Z,100052.61
2019-01-23T02:50:37.800Z,100053.66
2019-01-23T02:53:08.092Z,100060.15
2019-01-23T02:55:38.717Z,100064.48
2019-01-23T02:58:12.371Z,100065.05
2019-01-23T03:00:46.990Z,100070.44
2019-01-23T03:03:17.187Z,100072.88
2019-01-23T03:05:47.086Z,100070.17
2019-01-23T03:08:16.792Z,100065.87
2019-01-23T03:10:46.839Z,100066.42
2019-01-23T03:13:18.054Z,100066.20
2019-01-23T03:15:47.089Z,100071.33
2019-01-23T03:18:16.535Z,100066.48
2019-01-23T03:20:47.011Z,100073.33
2019-01-23T03:23:17.846Z,100075.77
2019-01-23T03:25:47.924Z,100076.88
2019-01-23T03:28:18.765Z,100079.34
2019-01-23T03:30:51.638Z,100078.28
2019-01-23T03:33:22.872Z,100076.70
2019-01-23T03:35:52.253Z,100080.22
2019-01-23T03:38:22.733Z,100086.94
2019-01-23T03:40:53.968Z,100084.23
2019-01-23T03:43:27.782Z,100089.61
2019-01-23T03:45:58.610Z,100086.09
2019-01-23T03:48:29.971Z,100097.94
2019-01-23T03:51:03.087Z,100088.23
2019-01-23T03:53:32.958Z,100100.63
2019-01-23T03:56:03.657Z,100106.59
2019-01-23T03:58:33.770Z,100102.27
2019-01-23T04:01:04.379Z,100099.05
2019-01-23T04:03:37.339Z,100092.59
2019-01-23T04:06:09.305Z,100102.30
2019-01-23T04:08:39.354Z,100109.88
2019-01-23T04:11:11.770Z,100108.81
2019-01-23T04:13:42.710Z,100109.08
2019-01-23T04:16:15.925Z,100108.00
2019-01-23T04:18:46.423Z,100110.17
2019-01-23T04:21:16.947Z,100110.95
2019-01-23T04:23:48.020Z,100113.89
2019-01-23T04:26:18.827Z,100113.06
2019-01-23T04:28:48.703Z,100126.27
2019-01-23T04:31:21.077Z,100123.01
2019-01-23T04:33:51.507Z,100124.36
2019-01-23T04:36:24.173Z,100131.06
2019-01-23T04:38:53.928Z,100128.37
2019-01-23T04:41:25.840Z,100131.86
2019-01-23T04:43:56.276Z,100143.97
2019-01-23T04:46:35.842Z,100136.63
2019-01-23T04:49:06.638Z,100135.24
2019-01-23T04:51:45.720Z,100147.05
2019-01-23T04:54:17.466Z,100142.44
2019-01-23T04:56:51.970Z,100153.75
2019-01-23T04:59:26.439Z,100153.48
2019-01-23T05:01:56.842Z,100154.53
2019-01-23T05:04:26.181Z,100155.31
2019-01-23T05:06:55.315Z,100154.79
2019-01-23T05:09:25.429Z,100153.14
2019-01-23T05:11:55.944Z,100150.18
2019-01-23T05:14:27.142Z,100157.41
2019-01-23T05:16:57.263Z,100159.58
2019-01-23T05:19:29.620Z,100182.20
2019-01-23T05:22:01.464Z,100179.71
2019-01-23T05:24:38.214Z,100178.28
2019-01-23T05:27:07.265Z,100183.84
2019-01-23T05:29:37.617Z,100183.73
2019-01-23T05:32:07.400Z,100183.89
2019-01-23T05:34:38.679Z,100182.97
2019-01-23T05:37:13.226Z,100186.38
2019-01-23T05:39:45.764Z,100183.33
2019-01-23T05:42:17.290Z,100185.45
2019-01-23T05:44:49.750Z,100193.48
2019-01-23T05:47:20.197Z,100202.91
2019-01-23T05:49:49.271Z,100207.24
2019-01-23T05:52:19.292Z,100220.45
2019-01-23T05:54:49.749Z,100223.17
2019-01-23T05:57:22.886Z,100224.03
2019-01-23T05:59:53.645Z,100220.01
2019-01-23T06:02:24.700Z,100219.28
2019-01-23T06:04:55.584Z,100220.42
2019-01-23T06:07:30.535Z,100219.61
2019-01-23T06:10:02.581Z,100220.17
2019-01-23T06:12:35.024Z,100225.31
2019-01-23T06:15:07.572Z,100226.66
2019-01-23T06:17:40.272Z,100229.66
2019-01-23T06:20:16.851Z,100217.27
2019-01-23T06:22:47.221Z,100227.27
2019-01-23T06:25:16.970Z,100225.41
2019-01-23T06:27:49.304Z,100230.59
2019-01-23T06:30:21.158Z,100236.81
2019-01-23T06:32:52.221Z,100225.83
2019-01-23T06:35:26.702Z,100243.70
2019-01-23T06:38:02.601Z,100251.84
2019-01-23T06:40:35.284Z,100246.77
2019-01-23T06:43:07.240Z,100248.42
2019-01-23T06:45:37.951Z,100257.34
2019-01-23T06:48:13.024Z,100260.65
2019-01-23T06:50:43.855Z,100264.44
2019-01-23T06:53:14.585Z,100282.53
2019-01-23T06:55:47.433Z,100277.92
2019-01-23T06:58:24.705Z,100285.66
2019-01-23T07:03:59.300Z,100297.31
2019-01-23T07:21:58.515Z,100330.38
2019-01-23T07:24:30.244Z,100331.78
2019-01-23T07:27:00.169Z,100337.19
2019-01-23T07:29:30.266Z,100340.23
2019-01-23T07:32:00.319Z,100343.47
2019-01-23T07:34:32.774Z,100356.95
2019-01-23T07:37:04.101Z,100352.38
2019-01-23T07:39:35.191Z,100354.83
2019-01-23T07:42:08.479Z,100349.17
2019-01-23T07:44:40.694Z,100361.61
2019-01-23T07:47:11.027Z,100358.39
2019-01-23T07:49:43.752Z,100345.17
2019-01-23T07:52:15.825Z,100337.09
2019-01-23T07:54:48.392Z,100350.05
2019-01-23T07:57:19.078Z,100355.44
2019-01-23T07:59:50.129Z,100362.98
2019-01-23T08:02:20.995Z,100362.75
2019-01-23T08:04:50.831Z,100362.23
2019-01-23T08:07:19.883Z,100379.26
2019-01-23T08:09:57.770Z,100375.83
2019-01-23T08:12:29.563Z,100366.13
2019-01-23T08:15:01.904Z,100378.58
2019-01-23T08:17:36.662Z,100378.63
2019-01-23T08:20:11.947Z,100381.59
2019-01-23T08:22:46.023Z,100376.45
2019-01-23T08:25:18.492Z,100382.11
2019-01-23T08:27:48.992Z,100387.20
2019-01-23T08:30:22.927Z,100394.72
2019-01-23T08:33:08.023Z,100394.56
2019-01-23T08:35:41.639Z,100410.32
2019-01-23T08:38:13.643Z,100413.84
2019-01-23T08:40:44.776Z,100418.72
2019-01-23T08:43:24.366Z,100418.16
2019-01-23T08:45:57.336Z,100427.91
2019-01-23T09:02:07.991Z,100441.05
2019-01-23T09:04:50.937Z,100443.27
2019-01-23T09:07:20.635Z,100445.72
2019-01-23T09:10:12.343Z,100450.08
2019-01-23T09:12:41.791Z,100452.30
2019-01-23T09:18:02.391Z,100460.76
2019-01-23T09:20:35.740Z,100480.50
2019-01-23T09:23:06.487Z,100482.14
2019-01-23T09:25:54.152Z,100488.07
2019-01-23T09:28:28.206Z,100489.98
2019-01-23T09:31:13.472Z,100495.39
2019-01-23T09:33:52.307Z,100492.43
2019-01-23T09:38:35.885Z,100495.95
2019-01-23T09:41:12.881Z,100516.80
2019-01-23T09:44:58.367Z,100514.13
2019-01-23T09:47:52.359Z,100511.44
2019-01-23T09:50:34.912Z,100507.17
2019-01-23T09:53:16.303Z,100503.70
2019-01-23T09:55:54.172Z,100500.20
2019-01-23T09:58:23.985Z,100510.23
2019-01-23T10:00:59.551Z,100521.60
2019-01-23T10:03:24.837Z,100530.54
2019-01-23T10:05:55.719Z,100535.43
2019-01-23T10:08:27.759Z,100539.80
2019-01-23T10:10:59.044Z,100546.31
2019-01-23T10:13:31.323Z,100548.47
2019-01-23T10:16:05.541Z,100557.12
2019-01-23T10:18:37.216Z,100560.62
2019-01-23T10:21:08.026Z,100561.72
2019-01-23T10:23:40.891Z,100560.94
2019-01-23T10:26:14.299Z,100562.33
2019-01-23T10:28:44.270Z,100559.09
2019-01-23T10:31:13.580Z,100560.19
2019-01-23T10:33:45.930Z,100561.28
2019-01-23T10:36:17.596Z,100542.41
2019-01-23T10:38:48.775Z,100549.47
2019-01-23T10:41:22.171Z,100553.27
2019-01-23T10:43:54.523Z,100557.63
2019-01-23T10:46:31.166Z,100564.43
2019-01-23T10:49:01.817Z,100560.95
2019-01-23T10:54:09.908Z,100549.05
2019-01-23T10:56:39.811Z,100553.67
2019-01-23T10:59:15.584Z,100571.84
2019-01-23T11:01:48.218Z,100563.25
2019-01-23T11:04:18.999Z,100568.70
2019-01-23T11:06:51.858Z,100569.05
2019-01-23T11:09:23.611Z,100568.53
2019-01-23T11:11:56.618Z,100562.59
2019-01-23T11:14:27.074Z,100568.00
2019-01-23T11:17:00.107Z,100572.36
2019-01-23T11:19:29.150Z,100576.41
2019-01-23T11:21:58.747Z,100589.11
2019-01-23T11:24:29.918Z,100585.31
2019-01-23T11:27:00.996Z,100586.66
2019-01-23T11:29:35.332Z,100586.93
2019-01-23T11:32:09.075Z,100572.36
2019-01-23T11:34:43.156Z,100567.52
2019-01-23T11:37:13.556Z,100568.86
2019-01-23T11:39:43.314Z,100579.42
2019-01-23T11:42:16.086Z,100594.55
2019-01-23T11:44:45.179Z,100576.68
2019-01-23T11:47:15.203Z,100590.50
2019-01-23T11:49:46.520Z,100593.73
2019-01-23T11:52:18.038Z,100606.21
2019-01-23T11:54:48.450Z,100594.60
2019-01-23T11:57:21.786Z,100601.11
2019-01-23T11:59:54.778Z,100601.44
2019-01-23T12:02:30.566Z,100604.72
2019-01-23T12:04:55.124Z,100605.02
2019-01-23T12:07:25.135Z,100607.72
2019-01-23T12:09:55.147Z,100607.98
2019-01-23T12:12:24.254Z,100601.75
2019-01-23T12:14:53.366Z,100607.69
2019-01-23T12:17:22.403Z,100607.45
2019-01-23T12:19:51.632Z,100604.79
2019-01-23T12:22:20.869Z,100611.33
2019-01-23T12:24:52.897Z,100608.92
2019-01-23T12:27:22.207Z,100601.89
2019-01-23T12:29:52.574Z,100600.02
2019-01-23T12:32:22.112Z,100617.94
2019-01-23T12:34:53.017Z,100629.63
2019-01-23T12:37:22.217Z,100615.56
2019-01-23T12:39:51.942Z,100613.69
2019-01-23T12:42:21.314Z,100610.19
2019-01-23T12:44:50.466Z,100612.09
2019-01-23T12:47:21.510Z,100619.09
2019-01-23T12:49:51.290Z,100609.36
2019-01-23T12:52:21.385Z,100621.51
2019-01-23T12:54:51.698Z,100610.13
2019-01-23T12:57:21.356Z,100614.47
2019-01-23T12:59:51.686Z,100618.83
2019-01-23T13:02:22.549Z,100622.89
2019-01-23T13:04:51.855Z,100623.98
2019-01-23T13:07:21.130Z,100630.22
2019-01-23T13:09:50.264Z,100630.48
2019-01-23T13:12:19.406Z,100631.28
2019-01-23T13:14:49.626Z,100635.86
2019-01-23T13:17:18.944Z,100641.02
2019-01-23T13:19:48.033Z,100659.14
2019-01-23T13:22:18.074Z,100653.98
2019-01-23T13:24:47.424Z,100633.95
2019-01-23T13:27:16.967Z,100626.63
2019-01-23T13:29:46.471Z,100633.66
2019-01-23T13:32:20.258Z,100637.14
2019-01-23T13:34:53.834Z,100636.02
2019-01-23T13:37:24.751Z,100640.34
2019-01-23T13:39:57.935Z,100638.16
2019-01-23T13:42:28.011Z,100631.44
2019-01-23T13:44:57.139Z,100625.20
2019-01-23T13:47:26.839Z,100635.80
2019-01-23T13:49:56.393Z,100627.94
2019-01-23T13:52:30.280Z,100641.47
2019-01-23T13:55:01.379Z,100632.79
2019-01-23T13:57:32.662Z,100643.34
2019-01-23T14:00:02.581Z,100650.12
2019-01-23T14:02:32.751Z,100657.67
2019-01-23T14:05:01.959Z,100652.82
2019-01-23T14:07:31.796Z,100668.23
2019-01-23T14:10:09.569Z,100666.58
2019-01-23T14:12:38.802Z,100670.38
2019-01-23T14:15:09.920Z,100676.01
2019-01-23T14:17:39.336Z,100680.86
2019-01-23T14:20:11.900Z,100676.00
2019-01-23T14:22:41.250Z,100678.71
2019-01-23T14:25:13.277Z,100689.80
2019-01-23T14:27:42.751Z,100694.42
2019-01-23T14:30:19.210Z,100686.05
2019-01-23T14:32:48.516Z,100674.13
2019-01-23T14:35:20.353Z,100676.58
2019-01-23T14:37:51.193Z,100670.07
2019-01-23T14:40:21.343Z,100657.63
2019-01-23T14:42:51.691Z,100671.72
2019-01-23T14:45:21.736Z,100674.43
2019-01-23T14:47:50.907Z,100674.96
2019-01-23T14:50:24.893Z,100673.91
2019-01-23T14:52:53.613Z,100671.77
2019-01-23T14:55:23.433Z,100659.28
2019-01-23T14:57:52.721Z,100659.85
2019-01-23T15:00:55.483Z,100655.27
2019-01-23T15:03:28.210Z,100662.59
2019-01-23T15:05:57.547Z,100665.00
2019-01-23T15:08:30.992Z,100657.14
2019-01-23T15:11:00.774Z,100665.56
2019-01-23T15:13:30.059Z,100676.92
2019-01-23T15:16:01.620Z,100660.94
2019-01-23T15:18:30.885Z,100676.09
2019-01-23T15:21:02.714Z,100682.86
2019-01-23T15:23:34.587Z,100689.35
2019-01-23T15:26:04.752Z,100685.56
2019-01-23T15:28:38.854Z,100691.50
2019-01-23T15:31:12.472Z,100693.69
2019-01-23T15:33:55.249Z,100700.19
2019-01-23T15:36:25.739Z,100702.59
2019-01-23T15:38:56.234Z,100691.77
2019-01-23T15:41:26.799Z,100697.44
2019-01-23T15:44:10.259Z,100706.91
2019-01-23T15:46:47.927Z,100703.38
2019-01-23T15:49:21.226Z,100710.41
2019-01-23T15:51:56.576Z,100719.31
2019-01-23T15:54:28.740Z,100732.05
2019-01-23T15:57:01.027Z,100724.72
2019-01-23T15:59:33.193Z,100730.66
2019-01-23T16:02:02.247Z,100733.09
2019-01-23T16:04:37.371Z,100742.27
2019-01-23T16:07:08.180Z,100751.98
2019-01-23T16:09:40.903Z,100754.97
2019-01-23T16:12:16.906Z,100749.28
2019-01-23T16:14:50.538Z,100750.37
2019-01-23T16:17:26.617Z,100753.08
2019-01-23T16:19:57.804Z,100758.19
2019-01-23T16:22:27.316Z,100753.56
2019-01-23T16:24:59.123Z,100756.00
2019-01-23T16:27:31.324Z,100762.19
2019-01-23T16:30:07.658Z,100763.50
2019-01-23T16:32:42.081Z,100771.62
2019-01-23T16:35:13.937Z,100767.30
2019-01-23T16:37:46.395Z,100775.36
2019-01-23T16:40:16.658Z,100771.04
2019-01-23T16:42:46.226Z,100774.80
2019-01-23T16:45:16.538Z,100776.13
2019-01-23T16:47:49.765Z,100773.69
2019-01-23T16:50:20.951Z,100773.39
2019-01-23T16:52:51.668Z,100778.53
2019-01-23T16:55:23.317Z,100774.73
2019-01-23T16:57:54.212Z,100772.81
2019-01-23T17:00:31.717Z,100777.95
2019-01-23T17:03:05.210Z,100783.68
2019-01-23T17:05:36.007Z,100788.01
2019-01-23T17:08:09.816Z,100789.34
2019-01-23T17:10:42.688Z,100787.42
2019-01-23T17:13:14.608Z,100792.53
2019-01-23T17:15:44.205Z,100791.99
2019-01-23T17:18:14.012Z,100787.89
2019-01-23T17:20:50.017Z,100801.37
2019-01-23T17:23:28.113Z,100796.47
2019-01-23T17:29:04.990Z,100807.22
2019-01-23T17:31:36.178Z,100815.03
2019-01-23T17:34:08.778Z,100813.94
2019-01-23T17:36:41.081Z,100804.73
2019-01-23T17:39:15.902Z,100808.78
2019-01-23T17:41:50.648Z,100807.43
2019-01-23T17:44:21.654Z,100798.49
2019-01-23T17:46:55.277Z,100805.81
2019-01-23T17:52:20.604Z,100808.73
2019-01-23T17:54:51.849Z,100788.44
2019-01-23T17:57:24.815Z,100796.55
2019-01-23T17:59:58.651Z,100796.25
2019-01-23T18:02:29.074Z,100797.33
2019-01-23T18:05:04.431Z,100805.44
2019-01-23T18:07:36.965Z,100813.55
2019-01-23T18:10:14.766Z,100805.14
2019-01-23T18:12:46.959Z,100808.14
2019-01-23T18:15:20.004Z,100804.09
2019-01-23T18:17:52.553Z,100813.25
2019-01-23T18:20:27.096Z,100821.92
2019-01-23T18:22:57.481Z,100820.27
2019-01-23T18:25:30.666Z,100817.56
2019-01-23T18:28:00.040Z,100817.81
2019-01-23T18:31:08.026Z,100819.47
2019-01-23T18:36:46.654Z,100837.04
2019-01-23T18:41:31.603Z,100833.25
2019-01-23T18:45:17.805Z,100831.63
2019-01-23T18:49:07.719Z,100836.47
2019-01-23T18:51:47.666Z,100837.52
2019-01-23T18:54:18.502Z,100823.67
2019-01-23T18:56:51.158Z,100822.63
2019-01-23T18:59:21.171Z,100828.03
2019-01-23T19:01:58.637Z,100816.66
2019-01-23T19:04:28.860Z,100816.64
2019-01-23T19:07:02.533Z,100792.57
2019-01-23T19:09:32.524Z,100810.92
2019-01-23T19:12:11.087Z,100838.22
2019-01-23T19:14:45.621Z,100827.14
2019-01-23T19:17:17.036Z,100823.61
2019-01-23T19:19:50.535Z,100826.27
2019-01-23T19:22:24.080Z,100815.69
2019-01-23T19:24:55.166Z,100830.55
2019-01-23T19:27:24.611Z,100831.89
2019-01-23T19:29:56.437Z,100824.31
2019-01-23T19:32:40.492Z,100831.32
2019-01-23T19:35:11.419Z,100832.37
2019-01-23T19:37:45.015Z,100835.33
2019-01-23T19:40:17.081Z,100850.71
2019-01-23T19:42:51.707Z,100850.17
2019-01-23T19:45:24.587Z,100861.75
2019-01-23T19:48:00.758Z,100871.93
2019-01-23T19:50:31.276Z,100889.14
2019-01-23T19:53:01.294Z,100878.47
2019-01-23T19:55:35.586Z,100885.41
2019-01-23T19:58:09.212Z,100893.44
2019-01-23T20:00:47.242Z,100896.33
2019-01-23T20:03:22.130Z,100889.80
2019-01-23T20:05:55.339Z,100895.72
2019-01-23T20:08:30.262Z,100895.45
2019-01-23T20:11:17.499Z,100903.30
2019-01-23T20:13:47.901Z,100923.25
2019-01-23T20:16:20.402Z,100925.92
2019-01-23T20:18:56.839Z,100908.83
2019-01-23T20:21:42.021Z,100917.70
2019-01-23T20:24:14.347Z,100908.80
2019-01-23T20:26:45.860Z,100910.43
2019-01-23T20:29:17.121Z,100923.16
2019-01-23T20:31:46.597Z,100915.06
2019-01-23T20:34:20.614Z,100911.84
2019-01-23T20:36:52.666Z,100907.20
2019-01-23T20:39:31.992Z,100897.23
2019-01-23T20:42:08.834Z,100878.02
2019-01-23T20:44:44.061Z,100851.59
2019-01-23T20:47:19.745Z,100848.56
2019-01-23T20:49:50.153Z,100834.20
2019-01-23T20:52:24.774Z,100822.52
2019-01-23T20:55:00.554Z,100845.14
2019-01-23T20:57:31.102Z,100857.54
2019-01-23T21:00:03.777Z,100877.77
2019-01-23T21:02:39.268Z,100894.94
2019-01-23T21:05:12.378Z,100882.77
2019-01-23T21:07:48.791Z,100886.23
2019-01-23T21:10:21.330Z,100896.51
2019-01-23T21:12:53.915Z,100899.73
2019-01-23T21:15:34.945Z,100906.48
2019-01-23T21:18:07.712Z,100896.20
2019-01-23T21:20:48.668Z,100874.08
2019-01-23T21:23:29.114Z,100890.80
2019-01-23T21:28:36.062Z,100903.96
2019-01-23T21:31:05.517Z,100895.59
2019-01-23T21:33:42.030Z,100904.20
2019-01-23T21:36:11.552Z,100911.20
2019-01-23T21:38:46.950Z,100910.03
2019-01-23T21:41:20.556Z,100910.27
2019-01-23T21:43:53.822Z,100900.31
2019-01-23T21:46:26.242Z,100900.58
2019-01-23T21:49:01.707Z,100912.21
2019-01-23T21:51:33.199Z,100918.98
2019-01-23T21:54:06.362Z,100908.50
2019-01-23T21:56:41.380Z,100909.36
2019-01-23T21:59:12.670Z,100905.95
2019-01-23T22:01:48.637Z,100909.23
2019-01-23T22:04:26.142Z,100907.92
2019-01-23T22:06:58.714Z,100900.12
2019-01-23T22:09:32.928Z,100907.46
2019-01-23T22:12:04.476Z,100909.91
2019-01-23T22:14:36.059Z,100904.77
2019-01-23T22:17:08.617Z,100903.34
2019-01-23T22:19:47.920Z,100905.98
2019-01-23T22:22:23.061Z,100900.83
2019-01-23T22:24:56.873Z,100890.55
2019-01-23T22:27:28.010Z,100884.88
2019-01-23T22:30:02.879Z,100902.70
2019-01-23T22:32:34.710Z,100914.64
2019-01-23T22:35:06.754Z,100925.37
2019-01-23T22:37:40.466Z,100938.59
2019-01-23T22:40:17.701Z,100935.31
2019-01-23T22:42:48.716Z,100940.16
2019-01-23T22:45:20.635Z,100942.86
2019-01-23T22:47:54.161Z,100941.23
2019-01-23T22:50:26.763Z,100937.95
2019-01-23T22:52:57.066Z,100941.75
2019-01-23T22:55:31.590Z,100947.16
2019-01-23T22:58:04.895Z,100944.45
2019-01-23T23:01:19.216Z,100941.57
2019-01-23T23:03:50.895Z,100948.08
2019-01-23T23:06:20.580Z,100940.50
2019-01-23T23:08:57.869Z,100939.70
2019-01-23T23:11:33.531Z,100944.20
2019-01-23T23:14:13.303Z,100952.27
2019-01-23T23:16:49.633Z,100946.88
2019-01-23T23:19:22.411Z,100949.33
2019-01-23T23:21:52.195Z,100948.50
2019-01-23T23:24:26.691Z,100957.67
2019-01-23T23:26:58.592Z,100960.13
2019-01-23T23:29:31.234Z,100957.95
2019-01-23T23:32:02.253Z,100959.30
2019-01-23T23:34:32.407Z,100969.05
2019-01-23T23:37:04.607Z,100972.80
2019-01-23T23:39:37.998Z,100983.59
2019-01-23T23:42:10.400Z,100990.59
2019-01-23T23:44:40.806Z,101002.48
2019-01-23T23:47:11.698Z,101004.73
2019-01-23T23:49:44.493Z,101003.66
2019-01-23T23:52:13.623Z,101012.28
2019-01-23T23:54:43.463Z,101014.19
2019-01-23T23:57:16.074Z,101012.28
2019-01-23T23:59:47.318Z,101007.64
